createdAt,value
2022-11-03T00:01:03.578Z,95.04
2022-11-03T00:03:29.936Z,94.99
2022-11-03T00:06:05.371Z,94.94
2022-11-03T00:08:31.671Z,94.79
2022-11-03T00:11:04.988Z,94.40
2022-11-03T00:13:31.313Z,94.34
2022-11-03T00:15:57.631Z,93.82
2022-11-03T00:18:24.011Z,93.91
2022-11-03T00:20:57.161Z,93.89
2022-11-03T00:23:24.662Z,93.17
2022-11-03T00:25:50.969Z,92.68
2022-11-03T00:28:17.318Z,93.54
2022-11-03T00:30:43.698Z,93.49
2022-11-03T00:33:10.057Z,93.65
2022-11-03T00:35:36.377Z,93.22
2022-11-03T00:38:02.707Z,92.87
2022-11-03T00:40:29.028Z,93.36
2022-11-03T00:42:55.343Z,93.35
2022-11-03T00:45:21.680Z,92.58
2022-11-03T00:48:23.493Z,92.55
2022-11-03T00:50:49.815Z,92.66
2022-11-03T00:53:16.147Z,92.49
2022-11-03T00:55:42.529Z,92.53
2022-11-03T00:58:08.835Z,92.12
2022-11-03T01:00:35.163Z,92.72
2022-11-03T01:03:01.470Z,92.54
2022-11-03T01:05:46.674Z,92.45
2022-11-03T01:08:13.014Z,93.52
2022-11-03T01:10:59.319Z,93.37
2022-11-03T01:13:25.660Z,93.16
2022-11-03T01:15:51.987Z,92.54
2022-11-03T01:18:18.484Z,92.35
2022-11-03T01:20:44.802Z,92.69
2022-11-03T01:23:11.125Z,93.05
2022-11-03T01:25:37.456Z,92.89
2022-11-03T01:30:31.067Z,93.12
2022-11-03T01:32:57.391Z,92.51
2022-11-03T01:35:23.706Z,92.48
2022-11-03T01:37:50.076Z,93.05
2022-11-03T01:40:16.903Z,93.26
2022-11-03T01:42:43.218Z,92.88
2022-11-03T01:45:09.576Z,92.94
2022-11-03T01:47:36.027Z,93.13
2022-11-03T01:50:09.711Z,93.47
2022-11-03T01:52:47.117Z,93.64
2022-11-03T01:55:14.012Z,94.43
2022-11-03T01:57:41.513Z,94.34
2022-11-03T02:00:08.165Z,94.70
2022-11-03T02:02:34.522Z,95.11
2022-11-03T02:05:00.999Z,94.76
2022-11-03T02:07:39.521Z,95.51
2022-11-03T02:10:06.154Z,96.04
2022-11-03T02:12:32.483Z,96.52
2022-11-03T02:15:00.330Z,96.75
2022-11-03T02:17:27.472Z,97.19
2022-11-03T02:20:00.949Z,97.46
2022-11-03T02:22:27.235Z,98.38
2022-11-03T02:25:04.905Z,98.24
2022-11-03T02:27:31.229Z,99.13
2022-11-03T02:29:58.907Z,99.60
2022-11-03T02:32:26.821Z,100.00
2022-11-03T02:35:00.580Z,100.00
2022-11-03T02:37:30.493Z,100.00
2022-11-03T02:39:57.396Z,100.00
2022-11-03T02:42:23.733Z,100.00
2022-11-03T02:44:50.085Z,100.00
2022-11-03T02:47:16.782Z,100.00
2022-11-03T02:49:49.827Z,100.00
2022-11-03T02:52:35.421Z,100.00
2022-11-03T02:55:02.895Z,100.00
2022-11-03T02:57:29.879Z,100.00
2022-11-03T03:00:01.278Z,100.00
2022-11-03T03:02:32.403Z,100.00
2022-11-03T03:04:59.270Z,100.00
2022-11-03T03:07:27.006Z,100.00
2022-11-03T03:09:57.976Z,100.00
2022-11-03T03:12:24.524Z,100.00
2022-11-03T03:14:50.978Z,100.00
2022-11-03T03:17:23.346Z,100.00
2022-11-03T03:19:55.692Z,100.00
2022-11-03T03:22:31.111Z,100.00
2022-11-03T03:25:03.715Z,100.00
2022-11-03T03:27:30.217Z,100.00
2022-11-03T03:29:57.589Z,100.00
2022-11-03T03:32:24.353Z,100.00
2022-11-03T03:34:50.819Z,100.00
2022-11-03T03:37:17.689Z,100.00
2022-11-03T03:39:46.090Z,100.00
2022-11-03T03:42:12.409Z,100.00
2022-11-03T03:44:38.815Z,100.00
2022-11-03T03:47:07.305Z,100.00
2022-11-03T03:49:33.697Z,100.00
2022-11-03T03:52:00.026Z,100.00
2022-11-03T03:54:26.364Z,100.00
2022-11-03T03:57:03.118Z,100.00
2022-11-03T03:59:29.470Z,100.00
2022-11-03T04:01:55.912Z,100.00
2022-11-03T04:04:22.395Z,100.00
2022-11-03T04:06:48.883Z,100.00
2022-11-03T04:09:15.225Z,100.00
2022-11-03T04:12:00.220Z,100.00
2022-11-03T04:14:45.144Z,100.00
2022-11-03T04:17:38.066Z,100.00
2022-11-03T04:20:23.124Z,100.00
2022-11-03T04:22:49.443Z,100.00
2022-11-03T04:25:15.803Z,100.00
2022-11-03T04:27:42.214Z,100.00
2022-11-03T04:30:16.340Z,100.00
2022-11-03T04:32:46.605Z,100.00
2022-11-03T04:35:16.478Z,100.00
2022-11-03T04:37:46.542Z,100.00
2022-11-03T04:40:17.232Z,100.00
2022-11-03T04:42:44.206Z,100.00
2022-11-03T04:45:14.559Z,100.00
2022-11-03T04:47:40.895Z,100.00
2022-11-03T04:50:09.641Z,100.00
2022-11-03T04:52:35.959Z,100.00
2022-11-03T04:55:02.305Z,100.00
2022-11-03T04:57:28.628Z,100.00
2022-11-03T04:59:54.984Z,100.00
2022-11-03T05:02:21.378Z,100.00
2022-11-03T05:04:47.707Z,100.00
2022-11-03T05:07:23.035Z,100.00
2022-11-03T05:09:49.565Z,100.00
2022-11-03T05:12:16.205Z,100.00
2022-11-03T05:14:42.539Z,100.00
2022-11-03T05:17:17.818Z,100.00
2022-11-03T05:19:44.166Z,100.00
2022-11-03T05:22:15.739Z,100.00
2022-11-03T05:24:42.628Z,100.00
2022-11-03T05:27:11.425Z,100.00
2022-11-03T05:29:38.938Z,100.00
2022-11-03T05:32:10.408Z,100.00
2022-11-03T05:34:43.536Z,100.00
2022-11-03T05:37:26.141Z,100.00
2022-11-03T05:39:54.326Z,100.00
2022-11-03T05:42:24.497Z,100.00
2022-11-03T05:44:51.385Z,100.00
2022-11-03T05:47:50.322Z,100.00
2022-11-03T05:50:18.788Z,100.00
2022-11-03T05:52:45.662Z,100.00
2022-11-03T05:55:26.078Z,100.00
2022-11-03T05:57:53.201Z,100.00
2022-11-03T06:00:29.609Z,100.00
2022-11-03T06:02:56.942Z,100.00
2022-11-03T06:05:26.887Z,100.00
2022-11-03T06:07:53.620Z,100.00
2022-11-03T06:10:20.004Z,100.00
2022-11-03T06:12:46.318Z,100.00
2022-11-03T06:15:19.748Z,100.00
2022-11-03T06:17:46.412Z,100.00
2022-11-03T06:20:16.302Z,100.00
2022-11-03T06:22:43.026Z,100.00
2022-11-03T06:25:15.871Z,100.00
2022-11-03T06:27:42.472Z,100.00
2022-11-03T06:30:15.003Z,100.00
2022-11-03T06:32:41.315Z,100.00
2022-11-03T06:35:08.631Z,100.00
2022-11-03T06:37:35.965Z,100.00
2022-11-03T06:40:03.386Z,100.00
2022-11-03T06:42:32.265Z,100.00
2022-11-03T06:44:58.707Z,100.00
2022-11-03T06:47:28.475Z,100.00
2022-11-03T06:50:01.106Z,100.00
2022-11-03T06:52:31.095Z,100.00
2022-11-03T06:55:02.208Z,100.00
2022-11-03T06:57:28.925Z,100.00
2022-11-03T07:00:06.771Z,100.00
2022-11-03T07:03:02.040Z,100.00
2022-11-03T07:05:29.018Z,100.00
2022-11-03T07:08:00.745Z,100.00
2022-11-03T07:10:27.918Z,100.00
2022-11-03T07:12:54.487Z,100.00
2022-11-03T07:15:23.239Z,100.00
2022-11-03T07:17:49.569Z,100.00
2022-11-03T07:20:16.662Z,100.00
2022-11-03T07:22:43.281Z,100.00
2022-11-03T07:25:13.997Z,100.00
2022-11-03T07:27:40.317Z,100.00
2022-11-03T07:30:22.695Z,100.00
2022-11-03T07:32:49.661Z,100.00
2022-11-03T07:35:29.454Z,100.00
2022-11-03T07:38:09.142Z,100.00
2022-11-03T07:40:35.709Z,100.00
2022-11-03T07:43:08.568Z,100.00
2022-11-03T07:45:45.138Z,100.00
2022-11-03T07:48:24.251Z,100.00
2022-11-03T07:50:51.549Z,100.00
2022-11-03T07:53:37.306Z,100.00
2022-11-03T07:56:12.878Z,100.00
2022-11-03T07:58:39.599Z,100.00
2022-11-03T08:01:25.028Z,100.00
2022-11-03T08:03:51.521Z,100.00
2022-11-03T08:06:19.977Z,100.00
2022-11-03T08:08:46.588Z,100.00
2022-11-03T08:13:40.197Z,100.00
2022-11-03T08:16:06.614Z,100.00
2022-11-03T08:18:32.936Z,100.00
2022-11-03T08:20:59.296Z,100.00
2022-11-03T08:23:26.521Z,100.00
2022-11-03T08:25:53.148Z,100.00
2022-11-03T08:28:19.512Z,100.00
2022-11-03T08:30:45.909Z,100.00
2022-11-03T08:33:12.230Z,100.00
2022-11-03T08:35:38.650Z,100.00
2022-11-03T08:38:05.346Z,100.00
2022-11-03T08:40:31.920Z,100.00
2022-11-03T08:42:58.386Z,100.00
2022-11-03T08:45:24.765Z,100.00
2022-11-03T08:47:52.721Z,100.00
2022-11-03T08:50:19.114Z,100.00
2022-11-03T08:52:45.479Z,100.00
2022-11-03T08:55:11.827Z,100.00
2022-11-03T08:57:38.148Z,100.00
2022-11-03T09:00:05.886Z,100.00
2022-11-03T09:02:32.351Z,100.00
2022-11-03T09:04:59.046Z,100.00
2022-11-03T09:07:25.552Z,100.00
2022-11-03T09:10:20.376Z,100.00
2022-11-03T09:12:48.694Z,100.00
2022-11-03T09:15:15.035Z,100.00
2022-11-03T09:17:43.295Z,100.00
2022-11-03T09:20:12.025Z,100.00
2022-11-03T09:22:38.395Z,100.00
2022-11-03T09:25:05.037Z,100.00
2022-11-03T09:27:31.771Z,100.00
2022-11-03T09:30:12.797Z,100.00
2022-11-03T09:32:39.907Z,100.00
2022-11-03T09:35:06.467Z,100.00
2022-11-03T09:37:32.811Z,100.00
2022-11-03T09:39:59.183Z,100.00
2022-11-03T09:42:25.518Z,100.00
2022-11-03T09:44:52.437Z,100.00
2022-11-03T09:47:29.397Z,100.00
2022-11-03T09:49:55.737Z,100.00
2022-11-03T09:52:23.017Z,100.00
2022-11-03T09:54:49.508Z,100.00
2022-11-03T09:57:16.021Z,100.00
2022-11-03T09:59:46.207Z,100.00
2022-11-03T10:02:19.475Z,100.00
2022-11-03T10:04:45.862Z,100.00
2022-11-03T10:07:12.254Z,100.00
2022-11-03T10:09:39.305Z,100.00
2022-11-03T10:12:05.835Z,100.00
2022-11-03T10:14:32.165Z,100.00
2022-11-03T10:17:00.349Z,100.00
2022-11-03T10:19:26.897Z,100.00
2022-11-03T10:21:53.277Z,100.00
2022-11-03T10:24:19.596Z,100.00
2022-11-03T10:26:46.879Z,99.33
2022-11-03T10:31:51.861Z,99.17
2022-11-03T10:34:24.276Z,98.40
2022-11-03T10:36:51.075Z,99.11
2022-11-03T10:39:24.767Z,96.96
2022-11-03T10:41:58.521Z,95.55
2022-11-03T10:44:26.041Z,95.28
2022-11-03T10:46:59.554Z,94.76
2022-11-03T10:49:25.958Z,94.88
2022-11-03T10:51:52.883Z,95.35
2022-11-03T10:54:20.014Z,93.11
2022-11-03T10:56:46.410Z,94.20
2022-11-03T10:59:16.723Z,94.58
2022-11-03T11:01:43.158Z,95.21
2022-11-03T11:04:11.030Z,93.67
2022-11-03T11:06:37.642Z,93.34
2022-11-03T11:09:04.379Z,93.91
2022-11-03T11:11:30.722Z,93.54
2022-11-03T11:14:15.871Z,94.01
2022-11-03T11:16:52.131Z,93.20
2022-11-03T11:19:18.702Z,93.18
2022-11-03T11:21:45.364Z,91.59
2022-11-03T11:24:11.680Z,92.18
2022-11-03T11:26:38.725Z,93.02
2022-11-03T11:29:11.597Z,91.39
2022-11-03T11:31:44.413Z,92.35
2022-11-03T11:34:10.723Z,91.06
2022-11-03T11:36:37.563Z,91.83
2022-11-03T11:39:04.344Z,92.37
2022-11-03T11:41:49.522Z,92.41
2022-11-03T11:44:35.006Z,91.14
2022-11-03T11:47:01.405Z,90.86
2022-11-03T11:49:27.764Z,91.84
2022-11-03T11:51:54.649Z,91.53
2022-11-03T11:54:21.041Z,91.31
2022-11-03T11:56:47.621Z,92.06
2022-11-03T11:59:25.555Z,92.42
2022-11-03T12:01:52.607Z,91.99
2022-11-03T12:04:20.595Z,92.59
2022-11-03T12:06:47.651Z,90.55
2022-11-03T12:09:20.988Z,91.11
2022-11-03T12:11:55.501Z,91.71
2022-11-03T12:14:29.070Z,92.98
2022-11-03T12:16:55.735Z,91.73
2022-11-03T12:19:37.830Z,91.86
2022-11-03T12:22:05.053Z,90.75
2022-11-03T12:24:31.335Z,92.38
2022-11-03T12:26:57.978Z,91.70
2022-11-03T12:29:24.347Z,92.39
2022-11-03T12:31:50.686Z,92.56
2022-11-03T12:34:17.131Z,91.49
2022-11-03T12:36:43.845Z,92.14
2022-11-03T12:39:10.305Z,91.08
2022-11-03T12:41:36.660Z,92.46
2022-11-03T12:44:03.101Z,92.24
2022-11-03T12:46:29.481Z,92.02
2022-11-03T12:48:55.800Z,91.74
2022-11-03T12:51:22.952Z,91.41
2022-11-03T12:53:49.527Z,92.13
2022-11-03T12:56:16.385Z,91.74
2022-11-03T12:58:42.777Z,90.75
2022-11-03T13:01:09.260Z,90.10
2022-11-03T13:03:35.711Z,89.05
2022-11-03T13:06:04.424Z,90.11
2022-11-03T13:08:31.211Z,89.54
2022-11-03T13:10:57.609Z,90.37
2022-11-03T13:13:23.953Z,88.82
2022-11-03T13:15:50.275Z,90.10
2022-11-03T13:18:16.635Z,89.95
2022-11-03T13:20:44.898Z,91.16
2022-11-03T13:23:11.323Z,91.08
2022-11-03T13:25:37.895Z,91.33
2022-11-03T13:28:04.949Z,89.68
2022-11-03T13:30:31.310Z,90.64
2022-11-03T13:32:57.635Z,90.10
2022-11-03T13:35:23.980Z,90.37
2022-11-03T13:37:50.349Z,88.15
2022-11-03T13:40:50.331Z,88.14
2022-11-03T13:43:03.074Z,87.59
2022-11-03T13:45:29.402Z,86.85
2022-11-03T13:50:42.238Z,87.68
2022-11-03T13:55:57.522Z,87.38
2022-11-03T14:01:13.574Z,87.70
2022-11-03T14:06:26.465Z,87.59
2022-11-03T14:08:53.174Z,88.70
2022-11-03T14:11:38.476Z,88.10
2022-11-03T14:14:06.405Z,89.12
2022-11-03T14:16:33.466Z,88.54
2022-11-03T14:19:00.084Z,89.54
2022-11-03T14:21:26.466Z,88.99
2022-11-03T14:23:52.778Z,90.27
2022-11-03T14:26:40.209Z,90.29
2022-11-03T14:29:06.485Z,90.39
2022-11-03T14:31:32.832Z,90.91
2022-11-03T14:33:59.158Z,91.33
2022-11-03T14:36:25.515Z,92.34
2022-11-03T14:38:52.093Z,92.17
2022-11-03T14:41:44.746Z,93.24
2022-11-03T14:44:11.144Z,94.49
2022-11-03T14:46:37.618Z,94.87
2022-11-03T14:49:03.979Z,95.74
2022-11-03T14:51:31.271Z,95.37
2022-11-03T14:53:59.398Z,95.51
2022-11-03T14:56:25.807Z,95.01
2022-11-03T14:58:53.088Z,95.56
2022-11-03T15:01:19.758Z,94.56
2022-11-03T15:03:46.303Z,94.49
2022-11-03T15:06:12.694Z,94.93
2022-11-03T15:08:39.045Z,95.03
2022-11-03T15:11:07.749Z,95.70
2022-11-03T15:13:39.548Z,96.01
2022-11-03T15:16:10.544Z,96.33
2022-11-03T15:18:36.862Z,97.04
2022-11-03T15:21:03.208Z,96.69
2022-11-03T15:26:16.037Z,96.79
2022-11-03T15:28:42.597Z,96.50
2022-11-03T15:31:08.955Z,95.71
2022-11-03T15:33:35.362Z,95.35
2022-11-03T15:36:01.839Z,96.45
2022-11-03T15:38:28.200Z,95.60
2022-11-03T15:41:14.515Z,95.28
2022-11-03T15:43:47.974Z,94.67
2022-11-03T15:46:14.651Z,94.58
2022-11-03T15:48:41.040Z,94.72
2022-11-03T15:51:07.449Z,95.14
2022-11-03T15:53:33.778Z,95.71
2022-11-03T15:56:00.233Z,95.47
2022-11-03T15:58:26.559Z,96.06
2022-11-03T16:00:52.960Z,95.79
2022-11-03T16:03:19.370Z,95.82
2022-11-03T16:05:45.735Z,96.33
2022-11-03T16:08:12.290Z,95.63
2022-11-03T16:10:39.909Z,95.41
2022-11-03T16:13:08.717Z,95.34
2022-11-03T16:15:35.100Z,96.28
2022-11-03T16:18:02.717Z,95.51
2022-11-03T16:20:32.198Z,95.72
2022-11-03T16:22:58.548Z,95.89
2022-11-03T16:25:25.174Z,96.14
2022-11-03T16:27:51.848Z,96.09
2022-11-03T16:30:18.187Z,97.01
2022-11-03T16:32:44.617Z,96.86
2022-11-03T16:35:12.033Z,97.08
2022-11-03T16:37:38.438Z,96.79
2022-11-03T16:40:05.378Z,97.28
2022-11-03T16:42:38.169Z,97.61
2022-11-03T16:45:05.977Z,97.36
2022-11-03T16:47:33.058Z,97.73
2022-11-03T16:50:00.564Z,97.37
2022-11-03T16:52:27.923Z,97.89
2022-11-03T16:54:54.589Z,98.43
2022-11-03T16:57:21.286Z,99.10
2022-11-03T16:59:47.647Z,100.00
2022-11-03T17:02:16.505Z,99.16
2022-11-03T17:04:43.740Z,100.00
2022-11-03T17:07:10.763Z,100.00
2022-11-03T17:09:37.499Z,100.00
2022-11-03T17:12:04.324Z,100.00
2022-11-03T17:14:31.691Z,100.00
2022-11-03T17:16:59.242Z,100.00
2022-11-03T17:19:26.817Z,100.00
2022-11-03T17:21:56.382Z,100.00
2022-11-03T17:24:22.697Z,100.00
2022-11-03T17:26:56.610Z,100.00
2022-11-03T17:29:23.817Z,100.00
2022-11-03T17:31:50.217Z,100.00
2022-11-03T17:34:16.649Z,100.00
2022-11-03T17:36:42.999Z,100.00
2022-11-03T17:39:10.276Z,100.00
2022-11-03T17:41:37.411Z,100.00
2022-11-03T17:44:06.077Z,100.00
2022-11-03T17:46:32.648Z,100.00
2022-11-03T17:49:00.709Z,100.00
2022-11-03T17:51:27.049Z,100.00
2022-11-03T17:53:53.379Z,100.00
2022-11-03T17:56:34.951Z,100.00
2022-11-03T17:59:02.059Z,100.00
2022-11-03T18:01:28.977Z,100.00
2022-11-03T18:04:00.210Z,100.00
2022-11-03T18:06:26.660Z,99.17
2022-11-03T18:08:54.062Z,98.52
2022-11-03T18:11:43.497Z,97.99
2022-11-03T18:14:09.837Z,96.83
2022-11-03T18:16:36.763Z,96.34
2022-11-03T18:19:03.176Z,95.19
2022-11-03T18:21:29.884Z,95.65
2022-11-03T18:23:56.657Z,95.67
2022-11-03T18:26:23.638Z,95.70
2022-11-03T18:28:52.588Z,95.70
2022-11-03T18:31:49.932Z,96.46
2022-11-03T18:34:18.122Z,97.52
2022-11-03T18:36:46.333Z,98.09
2022-11-03T18:39:15.405Z,98.94
2022-11-03T18:41:44.100Z,98.39
2022-11-03T18:44:20.431Z,99.60
2022-11-03T18:46:47.387Z,100.00
2022-11-03T18:49:13.956Z,100.00
2022-11-03T18:51:41.609Z,100.00
2022-11-03T18:54:09.018Z,100.00
2022-11-03T18:56:38.142Z,100.00
2022-11-03T18:59:05.389Z,100.00
2022-11-03T19:01:34.453Z,100.00
2022-11-03T19:04:00.961Z,100.00
2022-11-03T19:06:27.854Z,100.00
2022-11-03T19:08:58.215Z,100.00
2022-11-03T19:11:24.642Z,100.00
2022-11-03T19:13:50.962Z,100.00
2022-11-03T19:16:20.193Z,100.00
2022-11-03T19:18:46.599Z,100.00
2022-11-03T19:21:15.339Z,100.00
2022-11-03T19:23:47.618Z,100.00
2022-11-03T19:26:15.996Z,100.00
2022-11-03T19:28:42.330Z,100.00
2022-11-03T19:31:11.907Z,100.00
2022-11-03T19:33:38.240Z,100.00
2022-11-03T19:36:07.785Z,100.00
2022-11-03T19:38:35.954Z,100.00
2022-11-03T19:41:20.774Z,100.00
2022-11-03T19:43:47.094Z,100.00
2022-11-03T19:46:16.400Z,100.00
2022-11-03T19:48:44.255Z,100.00
2022-11-03T19:51:12.867Z,100.00
2022-11-03T19:53:43.174Z,100.00
2022-11-03T19:56:16.697Z,100.00
2022-11-03T19:58:43.163Z,100.00
2022-11-03T20:01:09.543Z,100.00
2022-11-03T20:03:36.079Z,100.00
2022-11-03T20:06:02.477Z,100.00
2022-11-03T20:08:30.089Z,100.00
2022-11-03T20:10:56.627Z,100.00
2022-11-03T20:13:23.514Z,100.00
2022-11-03T20:15:57.361Z,100.00
2022-11-03T20:18:25.685Z,100.00
2022-11-03T20:20:52.303Z,100.00
2022-11-03T20:23:23.302Z,100.00
2022-11-03T20:25:49.623Z,100.00
2022-11-03T20:28:21.400Z,100.00
2022-11-03T20:30:49.270Z,100.00
2022-11-03T20:33:16.149Z,100.00
2022-11-03T20:35:42.632Z,100.00
2022-11-03T20:38:09.889Z,100.00
2022-11-03T20:40:36.514Z,100.00
2022-11-03T20:43:03.076Z,100.00
2022-11-03T20:45:30.213Z,100.00
2022-11-03T20:47:59.498Z,100.00
2022-11-03T20:50:26.099Z,100.00
2022-11-03T20:52:52.764Z,100.00
2022-11-03T20:55:24.200Z,100.00
2022-11-03T20:57:52.341Z,100.00
2022-11-03T21:00:21.520Z,100.00
2022-11-03T21:02:48.486Z,100.00
2022-11-03T21:05:17.830Z,100.00
2022-11-03T21:07:44.422Z,100.00
2022-11-03T21:10:13.707Z,100.00
2022-11-03T21:12:43.888Z,100.00
2022-11-03T21:16:18.296Z,100.00
2022-11-03T21:18:56.126Z,100.00
2022-11-03T21:21:22.424Z,100.00
2022-11-03T21:23:48.921Z,100.00
2022-11-03T21:26:15.488Z,100.00
2022-11-03T21:28:41.868Z,100.00
2022-11-03T21:31:12.246Z,100.00
2022-11-03T21:33:38.556Z,100.00
2022-11-03T21:36:05.086Z,100.00
2022-11-03T21:38:33.215Z,100.00
2022-11-03T21:41:19.717Z,100.00
2022-11-03T21:44:04.633Z,100.00
2022-11-03T21:46:31.358Z,100.00
2022-11-03T21:49:20.692Z,100.00
2022-11-03T21:51:47.811Z,100.00
2022-11-03T21:54:14.478Z,100.00
2022-11-03T21:56:41.031Z,100.00
2022-11-03T21:59:07.446Z,100.00
2022-11-03T22:01:34.923Z,100.00
2022-11-03T22:04:02.126Z,100.00
2022-11-03T22:06:28.440Z,100.00
2022-11-03T22:08:56.965Z,100.00
2022-11-03T22:11:23.361Z,100.00
2022-11-03T22:13:50.379Z,100.00
2022-11-03T22:16:36.382Z,100.00
2022-11-03T22:19:31.153Z,100.00
2022-11-03T22:22:18.161Z,100.00
2022-11-03T22:25:03.382Z,100.00
2022-11-03T22:27:30.276Z,100.00
2022-11-03T22:30:15.489Z,100.00
2022-11-03T22:32:42.028Z,100.00
2022-11-03T22:35:30.292Z,100.00
2022-11-03T22:38:07.173Z,100.00
2022-11-03T22:40:52.388Z,100.00
2022-11-03T22:43:37.580Z,100.00
2022-11-03T22:46:06.802Z,100.00
2022-11-03T22:48:33.184Z,100.00
2022-11-03T22:51:15.499Z,100.00
2022-11-03T22:54:00.791Z,100.00
2022-11-03T22:56:28.344Z,100.00
2022-11-03T22:58:55.279Z,100.00
2022-11-03T23:01:22.760Z,100.00
2022-11-03T23:03:49.289Z,100.00
2022-11-03T23:06:17.635Z,100.00
2022-11-03T23:08:45.527Z,100.00
2022-11-03T23:11:16.082Z,100.00
2022-11-03T23:13:47.621Z,100.00
2022-11-03T23:16:18.375Z,100.00
2022-11-03T23:19:03.141Z,100.00
2022-11-03T23:21:29.870Z,100.00
2022-11-03T23:24:15.006Z,100.00
2022-11-03T23:26:44.085Z,100.00
2022-11-03T23:29:10.872Z,100.00
2022-11-03T23:31:37.966Z,100.00
2022-11-03T23:34:04.734Z,100.00
2022-11-03T23:36:32.662Z,100.00
2022-11-03T23:38:59.477Z,100.00
2022-11-03T23:41:26.082Z,100.00
2022-11-03T23:43:52.775Z,100.00
2022-11-03T23:46:39.999Z,100.00
2022-11-03T23:51:48.675Z,100.00
2022-11-03T23:54:16.944Z,100.00
2022-11-03T23:57:03.758Z,100.00
2022-11-03T23:59:31.096Z,100.00
